sensor_id;sensor_type;location;lat;lon;timestamp;pressure;altitude;pressure_sealevel;temperature;humidity
5879;BME280;2965;42.640;23.370;2023-05-03T04:01:08;94842.97;;;11.00;76.90
5879;BME280;2965;42.640;23.370;2023-05-03T04:03:34;94847.41;;;11.00;77.29
5879;BME280;2965;42.640;23.370;2023-05-03T04:05:59;94856.25;;;10.99;77.74
5879;BME280;2965;42.640;23.370;2023-05-03T04:08:24;94857.16;;;11.06;78.51
5879;BME280;2965;42.640;23.370;2023-05-03T04:10:50;94855.19;;;11.08;77.99
5879;BME280;2965;42.640;23.370;2023-05-03T04:13:15;94852.72;;;11.06;77.85
5879;BME280;2965;42.640;23.370;2023-05-03T04:15:41;94857.16;;;11.06;77.32
5879;BME280;2965;42.640;23.370;2023-05-03T04:18:06;94864.94;;;11.14;77.36
5879;BME280;2965;42.640;23.370;2023-05-03T04:20:33;94870.16;;;11.14;76.97
5879;BME280;2965;42.640;23.370;2023-05-03T04:22:58;94865.66;;;11.08;79.10
5879;BME280;2965;42.640;23.370;2023-05-03T04:25:24;94876.59;;;11.11;78.26
5879;BME280;2965;42.640;23.370;2023-05-03T04:27:50;94879.63;;;11.15;78.39
5879;BME280;2965;42.640;23.370;2023-05-03T04:30:15;94886.94;;;11.05;78.28
5879;BME280;2965;42.640;23.370;2023-05-03T04:32:41;94884.06;;;11.15;79.61
5879;BME280;2965;42.640;23.370;2023-05-03T04:35:08;94892.91;;;10.99;78.48
5879;BME280;2965;42.640;23.370;2023-05-03T04:37:38;94890.91;;;11.01;78.20
5879;BME280;2965;42.640;23.370;2023-05-03T04:40:05;94892.53;;;11.02;78.08
5879;BME280;2965;42.640;23.370;2023-05-03T04:42:36;94900.22;;;11.03;78.66
5879;BME280;2965;42.640;23.370;2023-05-03T04:45:03;94892.63;;;11.08;78.62
5879;BME280;2965;42.640;23.370;2023-05-03T04:47:31;94897.06;;;11.08;79.82
5879;BME280;2965;42.640;23.370;2023-05-03T04:49:57;94903.97;;;11.01;79.77
5879;BME280;2965;42.640;23.370;2023-05-03T04:52:23;94902.31;;;11.08;80.43
5879;BME280;2965;42.640;23.370;2023-05-03T04:54:48;94902.66;;;11.05;80.38
5879;BME280;2965;42.640;23.370;2023-05-03T04:57:14;94915.44;;;11.00;84.53
5879;BME280;2965;42.640;23.370;2023-05-03T04:59:39;94925.06;;;11.07;85.26
5879;BME280;2965;42.640;23.370;2023-05-03T05:02:05;94923.59;;;11.05;88.73
5879;BME280;2965;42.640;23.370;2023-05-03T05:04:30;94924.66;;;10.96;91.08
5879;BME280;2965;42.640;23.370;2023-05-03T05:06:56;94925.69;;;10.86;92.05
5879;BME280;2965;42.640;23.370;2023-05-03T05:09:26;94949.28;;;11.01;96.39
5879;BME280;2965;42.640;23.370;2023-05-03T05:11:52;94938.13;;;10.84;99.70
5879;BME280;2965;42.640;23.370;2023-05-03T05:14:18;94939.78;;;10.85;96.58
5879;BME280;2965;42.640;23.370;2023-05-03T05:16:43;94944.06;;;10.78;100.00
5879;BME280;2965;42.640;23.370;2023-05-03T05:19:08;94943.72;;;10.81;100.00
5879;BME280;2965;42.640;23.370;2023-05-03T05:21:34;94949.25;;;10.86;100.00
5879;BME280;2965;42.640;23.370;2023-05-03T05:24:00;94943.59;;;10.98;96.89
5879;BME280;2965;42.640;23.370;2023-05-03T05:26:26;94946.91;;;10.69;100.00
5879;BME280;2965;42.640;23.370;2023-05-03T05:28:52;94945.34;;;10.82;100.00
5879;BME280;2965;42.640;23.370;2023-05-03T05:31:17;94958.34;;;10.99;99.29
5879;BME280;2965;42.640;23.370;2023-05-03T05:33:43;94957.56;;;11.13;99.34
5879;BME280;2965;42.640;23.370;2023-05-03T05:36:09;94956.84;;;11.19;97.74
5879;BME280;2965;42.640;23.370;2023-05-03T05:38:34;94951.81;;;11.32;94.30
5879;BME280;2965;42.640;23.370;2023-05-03T05:41:01;94941.00;;;11.35;93.32
5879;BME280;2965;42.640;23.370;2023-05-03T05:43:26;94952.75;;;11.40;92.35
5879;BME280;2965;42.640;23.370;2023-05-03T05:45:51;94949.94;;;11.41;91.01
5879;BME280;2965;42.640;23.370;2023-05-03T05:48:17;94949.88;;;11.34;90.83
5879;BME280;2965;42.640;23.370;2023-05-03T05:50:42;94943.34;;;11.30;96.65
5879;BME280;2965;42.640;23.370;2023-05-03T05:53:07;94944.16;;;11.31;96.01
5879;BME280;2965;42.640;23.370;2023-05-03T05:55:34;94945.31;;;11.28;92.79
5879;BME280;2965;42.640;23.370;2023-05-03T05:57:59;94945.75;;;11.17;92.57
5879;BME280;2965;42.640;23.370;2023-05-03T06:00:25;94940.50;;;11.17;92.02
5879;BME280;2965;42.640;23.370;2023-05-03T14:03:56;94720.31;;;12.70;100.00
5879;BME280;2965;42.640;23.370;2023-05-03T14:06:21;94717.88;;;12.62;100.00
5879;BME280;2965;42.640;23.370;2023-05-03T14:08:47;94716.06;;;12.62;100.00
5879;BME280;2965;42.640;23.370;2023-05-03T14:11:17;94708.75;;;12.58;100.00
5879;BME280;2965;42.640;23.370;2023-05-03T14:13:43;94702.22;;;12.75;100.00
5879;BME280;2965;42.640;23.370;2023-05-03T14:18:48;94710.31;;;12.80;100.00
5879;BME280;2965;42.640;23.370;2023-05-03T14:21:15;94707.06;;;12.78;100.00
5879;BME280;2965;42.640;23.370;2023-05-03T14:23:46;94691.81;;;12.88;100.00
5879;BME280;2965;42.640;23.370;2023-05-03T14:26:12;94705.50;;;12.84;100.00
5879;BME280;2965;42.640;23.370;2023-05-03T14:28:38;94706.31;;;12.84;100.00
5879;BME280;2965;42.640;23.370;2023-05-03T14:31:05;94713.78;;;12.87;100.00
5879;BME280;2965;42.640;23.370;2023-05-03T14:33:31;94705.81;;;12.74;100.00
5879;BME280;2965;42.640;23.370;2023-05-03T14:35:57;94700.91;;;12.65;100.00
5879;BME280;2965;42.640;23.370;2023-05-03T14:38:23;94692.00;;;12.59;100.00
5879;BME280;2965;42.640;23.370;2023-05-03T14:40:48;94679.47;;;12.61;100.00
5879;BME280;2965;42.640;23.370;2023-05-03T14:43:15;94689.56;;;12.57;100.00
5879;BME280;2965;42.640;23.370;2023-05-03T14:48:08;94701.63;;;12.52;100.00
5879;BME280;2965;42.640;23.370;2023-05-03T14:50:34;94690.28;;;12.45;100.00
5879;BME280;2965;42.640;23.370;2023-05-03T14:52:59;94696.72;;;12.42;100.00
5879;BME280;2965;42.640;23.370;2023-05-03T14:55:25;94688.16;;;12.33;100.00
5879;BME280;2965;42.640;23.370;2023-05-03T14:57:50;94674.03;;;12.34;100.00
5879;BME280;2965;42.640;23.370;2023-05-03T15:00:16;94674.09;;;12.41;100.00
5879;BME280;2965;42.640;23.370;2023-05-03T15:02:43;94668.78;;;12.34;100.00
5879;BME280;2965;42.640;23.370;2023-05-03T15:05:09;94682.25;;;12.25;100.00
5879;BME280;2965;42.640;23.370;2023-05-03T15:07:35;94682.06;;;12.82;100.00
5879;BME280;2965;42.640;23.370;2023-05-03T15:10:01;94690.75;;;12.55;100.00
5879;BME280;2965;42.640;23.370;2023-05-03T15:12:30;94697.72;;;12.41;100.00
5879;BME280;2965;42.640;23.370;2023-05-03T15:14:56;94699.91;;;12.37;100.00
5879;BME280;2965;42.640;23.370;2023-05-03T15:17:21;94692.59;;;12.33;100.00
5879;BME280;2965;42.640;23.370;2023-05-03T15:19:47;94684.69;;;12.26;100.00
5879;BME280;2965;42.640;23.370;2023-05-03T15:22:13;94673.56;;;12.24;100.00
5879;BME280;2965;42.640;23.370;2023-05-03T15:24:39;94678.81;;;12.24;100.00
5879;BME280;2965;42.640;23.370;2023-05-03T15:27:05;94677.81;;;12.04;100.00
5879;BME280;2965;42.640;23.370;2023-05-03T15:29:30;94682.69;;;12.07;100.00
5879;BME280;2965;42.640;23.370;2023-05-03T15:31:56;94681.06;;;12.06;100.00
5879;BME280;2965;42.640;23.370;2023-05-03T15:36:52;94688.00;;;12.14;100.00
5879;BME280;2965;42.640;23.370;2023-05-03T15:39:18;94683.56;;;12.14;100.00
5879;BME280;2965;42.640;23.370;2023-05-03T15:41:43;94674.47;;;12.10;100.00
5879;BME280;2965;42.640;23.370;2023-05-03T15:44:12;94674.91;;;12.14;100.00
5879;BME280;2965;42.640;23.370;2023-05-03T15:46:39;94681.22;;;12.26;100.00
5879;BME280;2965;42.640;23.370;2023-05-03T15:49:04;94689.41;;;12.37;100.00
5879;BME280;2965;42.640;23.370;2023-05-03T15:51:30;94681.53;;;12.37;100.00
5879;BME280;2965;42.640;23.370;2023-05-03T15:53:55;94682.19;;;12.40;100.00
5879;BME280;2965;42.640;23.370;2023-05-03T15:56:21;94681.06;;;12.55;100.00
5879;BME280;2965;42.640;23.370;2023-05-03T15:58:46;94689.72;;;12.49;100.00
5879;BME280;2965;42.640;23.370;2023-05-03T16:01:12;94690.28;;;12.45;100.00
5879;BME280;2965;42.640;23.370;2023-05-03T16:03:38;94695.91;;;12.42;100.00
5879;BME280;2965;42.640;23.370;2023-05-03T16:06:04;94695.84;;;12.35;100.00
5879;BME280;2965;42.640;23.370;2023-05-03T16:08:30;94691.16;;;12.30;100.00
5879;BME280;2965;42.640;23.370;2023-05-03T16:10:55;94696.41;;;12.30;100.00
5879;BME280;2965;42.640;23.370;2023-05-03T16:13:22;94694.84;;;12.36;100.00
5879;BME280;2965;42.640;23.370;2023-05-03T16:15:48;94693.47;;;12.40;100.00
5879;BME280;2965;42.640;23.370;2023-05-03T16:18:16;94687.78;;;12.36;100.00
5879;BME280;2965;42.640;23.370;2023-05-03T16:20:42;94675.00;;;12.27;100.00
5879;BME280;2965;42.640;23.370;2023-05-03T16:23:07;94672.06;;;12.36;100.00
5879;BME280;2965;42.640;23.370;2023-05-03T16:25:33;94659.94;;;12.35;100.00
5879;BME280;2965;42.640;23.370;2023-05-03T16:27:58;94686.44;;;12.19;100.00
5879;BME280;2965;42.640;23.370;2023-05-03T16:30:24;94687.63;;;12.17;100.00
5879;BME280;2965;42.640;23.370;2023-05-03T16:32:49;94679.69;;;12.10;100.00
5879;BME280;2965;42.640;23.370;2023-05-03T16:35:16;94689.63;;;11.93;100.00
5879;BME280;2965;42.640;23.370;2023-05-03T16:37:42;94694.19;;;11.84;100.00
5879;BME280;2965;42.640;23.370;2023-05-03T16:40:07;94684.50;;;11.85;100.00
5879;BME280;2965;42.640;23.370;2023-05-03T16:42:38;94693.75;;;11.66;100.00
5879;BME280;2965;42.640;23.370;2023-05-03T16:45:06;94693.50;;;11.61;100.00
5879;BME280;2965;42.640;23.370;2023-05-03T16:47:38;94703.34;;;11.59;100.00
5879;BME280;2965;42.640;23.370;2023-05-03T16:50:08;94688.28;;;11.61;100.00
5879;BME280;2965;42.640;23.370;2023-05-03T16:52:40;94686.25;;;11.63;100.00
5879;BME280;2965;42.640;23.370;2023-05-03T16:55:07;94690.69;;;11.62;100.00
5879;BME280;2965;42.640;23.370;2023-05-03T16:57:34;94694.31;;;11.61;100.00
5879;BME280;2965;42.640;23.370;2023-05-03T17:00:04;94685.66;;;11.61;100.00
5879;BME280;2965;42.640;23.370;2023-05-03T17:02:36;94683.84;;;11.61;100.00
5879;BME280;2965;42.640;23.370;2023-05-03T17:05:03;94680.66;;;11.66;100.00
5879;BME280;2965;42.640;23.370;2023-05-03T17:07:32;94680.00;;;11.64;100.00
5879;BME280;2965;42.640;23.370;2023-05-03T17:09:59;94683.38;;;11.58;100.00
5879;BME280;2965;42.640;23.370;2023-05-03T17:12:24;94676.53;;;11.57;100.00
5879;BME280;2965;42.640;23.370;2023-05-03T17:14:50;94679.66;;;11.67;100.00
5879;BME280;2965;42.640;23.370;2023-05-03T17:17:15;94680.78;;;11.79;100.00
5879;BME280;2965;42.640;23.370;2023-05-03T17:19:41;94680.06;;;11.85;100.00
5879;BME280;2965;42.640;23.370;2023-05-03T17:22:06;94682.78;;;11.77;100.00
5879;BME280;2965;42.640;23.370;2023-05-03T17:24:32;94697.00;;;11.68;100.00
5879;BME280;2965;42.640;23.370;2023-05-03T17:26:58;94694.38;;;11.68;100.00
5879;BME280;2965;42.640;23.370;2023-05-03T17:29:23;94698.00;;;11.67;100.00
5879;BME280;2965;42.640;23.370;2023-05-03T17:31:49;94709.38;;;11.74;100.00
5879;BME280;2965;42.640;23.370;2023-05-03T17:34:15;94697.28;;;11.73;100.00
5879;BME280;2965;42.640;23.370;2023-05-03T17:36:40;94700.16;;;11.78;100.00
5879;BME280;2965;42.640;23.370;2023-05-03T17:39:05;94710.53;;;11.86;100.00
5879;BME280;2965;42.640;23.370;2023-05-03T17:41:31;94707.91;;;11.86;100.00
5879;BME280;2965;42.640;23.370;2023-05-03T17:43:56;94704.34;;;11.94;100.00
5879;BME280;2965;42.640;23.370;2023-05-03T17:46:22;94700.16;;;11.78;100.00
5879;BME280;2965;42.640;23.370;2023-05-03T17:48:47;94696.25;;;11.89;100.00
5879;BME280;2965;42.640;23.370;2023-05-03T17:51:13;94687.56;;;11.89;100.00
5879;BME280;2965;42.640;23.370;2023-05-03T17:53:40;94682.34;;;11.74;100.00
5879;BME280;2965;42.640;23.370;2023-05-03T17:56:16;94684.59;;;11.92;100.00
5879;BME280;2965;42.640;23.370;2023-05-03T17:58:43;94692.56;;;11.83;100.00
5879;BME280;2965;42.640;23.370;2023-05-03T18:01:09;94686.19;;;11.93;100.00
5879;BME280;2965;42.640;23.370;2023-05-03T18:03:38;94690.88;;;11.97;100.00
5879;BME280;2965;42.640;23.370;2023-05-03T18:06:07;94677.84;;;11.82;100.00
5879;BME280;2965;42.640;23.370;2023-05-03T18:08:33;94673.22;;;11.84;100.00
5879;BME280;2965;42.640;23.370;2023-05-03T18:10:58;94676.47;;;11.86;100.00
5879;BME280;2965;42.640;23.370;2023-05-03T18:13:24;94677.94;;;11.74;100.00
5879;BME280;2965;42.640;23.370;2023-05-03T18:15:49;94667.31;;;11.61;100.00
5879;BME280;2965;42.640;23.370;2023-05-03T18:18:15;94673.34;;;11.61;100.00
5879;BME280;2965;42.640;23.370;2023-05-03T18:20:40;94679.84;;;11.66;100.00
5879;BME280;2965;42.640;23.370;2023-05-03T18:23:06;94689.13;;;11.83;100.00
5879;BME280;2965;42.640;23.370;2023-05-03T18:25:31;94703.66;;;11.85;100.00
5879;BME280;2965;42.640;23.370;2023-05-03T18:27:57;94705.66;;;11.83;100.00
5879;BME280;2965;42.640;23.370;2023-05-03T18:30:23;94711.03;;;11.82;100.00
5879;BME280;2965;42.640;23.370;2023-05-03T18:32:53;94700.44;;;11.83;100.00
5879;BME280;2965;42.640;23.370;2023-05-03T18:35:19;94704.84;;;11.68;100.00
5879;BME280;2965;42.640;23.370;2023-05-03T18:37:44;94695.88;;;11.56;100.00
5879;BME280;2965;42.640;23.370;2023-05-03T18:40:10;94698.50;;;11.41;100.00
5879;BME280;2965;42.640;23.370;2023-05-03T18:42:36;94689.84;;;11.41;100.00
5879;BME280;2965;42.640;23.370;2023-05-03T18:45:01;94685.16;;;11.36;100.00
5879;BME280;2965;42.640;23.370;2023-05-03T18:47:28;94682.78;;;11.41;100.00
5879;BME280;2965;42.640;23.370;2023-05-03T18:49:53;94677.25;;;11.51;100.00
5879;BME280;2965;42.640;23.370;2023-05-03T18:52:19;94674.28;;;11.54;100.00
5879;BME280;2965;42.640;23.370;2023-05-03T18:54:45;94681.91;;;11.34;100.00
5879;BME280;2965;42.640;23.370;2023-05-03T18:57:11;94690.03;;;11.39;100.00
5879;BME280;2965;42.640;23.370;2023-05-03T18:59:37;94688.97;;;11.33;100.00
5879;BME280;2965;42.640;23.370;2023-05-03T19:02:03;94685.16;;;11.36;100.00
5879;BME280;2965;42.640;23.370;2023-05-03T19:04:28;94685.59;;;11.40;100.00
5879;BME280;2965;42.640;23.370;2023-05-03T19:06:54;94702.94;;;11.41;100.00
5879;BME280;2965;42.640;23.370;2023-05-03T19:09:19;94705.81;;;11.46;100.00
5879;BME280;2965;42.640;23.370;2023-05-03T19:11:45;94706.38;;;11.41;100.00
5879;BME280;2965;42.640;23.370;2023-05-03T19:14:11;94707.47;;;11.47;100.00
5879;BME280;2965;42.640;23.370;2023-05-03T19:16:37;94716.69;;;11.43;100.00
5879;BME280;2965;42.640;23.370;2023-05-03T19:19:02;94711.78;;;11.40;100.00
5879;BME280;2965;42.640;23.370;2023-05-03T19:21:28;94719.00;;;11.37;100.00
5879;BME280;2965;42.640;23.370;2023-05-03T19:23:53;94714.78;;;11.36;100.00
5879;BME280;2965;42.640;23.370;2023-05-03T19:26:19;94716.22;;;11.39;100.00
5879;BME280;2965;42.640;23.370;2023-05-03T19:28:44;94716.94;;;11.33;100.00
5879;BME280;2965;42.640;23.370;2023-05-03T19:31:10;94708.47;;;11.31;100.00
5879;BME280;2965;42.640;23.370;2023-05-03T19:33:35;94714.69;;;11.15;100.00
5879;BME280;2965;42.640;23.370;2023-05-03T19:36:02;94705.22;;;11.14;100.00
5879;BME280;2965;42.640;23.370;2023-05-03T19:38:34;94702.25;;;11.17;100.00
5879;BME280;2965;42.640;23.370;2023-05-03T19:41:03;94701.53;;;11.08;100.00
5879;BME280;2965;42.640;23.370;2023-05-03T19:43:36;94704.97;;;11.09;100.00
5879;BME280;2965;42.640;23.370;2023-05-03T19:46:01;94699.28;;;11.20;100.00
5879;BME280;2965;42.640;23.370;2023-05-03T19:48:27;94703.13;;;11.24;100.00
5879;BME280;2965;42.640;23.370;2023-05-03T19:50:52;94697.88;;;11.24;100.00
5879;BME280;2965;42.640;23.370;2023-05-03T19:53:18;94711.63;;;11.26;100.00
5879;BME280;2965;42.640;23.370;2023-05-03T19:56:04;94712.00;;;11.23;100.00
5879;BME280;2965;42.640;23.370;2023-05-03T19:58:31;94708.50;;;11.16;100.00
5879;BME280;2965;42.640;23.370;2023-05-03T20:00:57;94713.53;;;11.18;100.00
5879;BME280;2965;42.640;23.370;2023-05-03T20:03:23;94702.78;;;11.27;100.00
5879;BME280;2965;42.640;23.370;2023-05-03T20:05:48;94706.75;;;11.23;100.00
5879;BME280;2965;42.640;23.370;2023-05-03T20:08:14;94712.25;;;11.28;100.00
5879;BME280;2965;42.640;23.370;2023-05-03T20:10:39;94712.72;;;11.17;100.00
5879;BME280;2965;42.640;23.370;2023-05-03T20:13:05;94712.00;;;11.23;100.00
5879;BME280;2965;42.640;23.370;2023-05-03T20:15:31;94710.09;;;11.17;100.00
5879;BME280;2965;42.640;23.370;2023-05-03T20:17:57;94709.47;;;11.15;100.00
5879;BME280;2965;42.640;23.370;2023-05-03T20:20:22;94709.09;;;11.18;100.00
5879;BME280;2965;42.640;23.370;2023-05-03T20:22:48;94695.22;;;11.03;100.00
5879;BME280;2965;42.640;23.370;2023-05-03T20:25:15;94702.06;;;11.19;100.00
5879;BME280;2965;42.640;23.370;2023-05-03T20:27:40;94704.78;;;10.96;100.00
5879;BME280;2965;42.640;23.370;2023-05-03T20:30:06;94693.31;;;10.97;100.00
5879;BME280;2965;42.640;23.370;2023-05-03T20:32:31;94689.09;;;10.96;100.00
5879;BME280;2965;42.640;23.370;2023-05-03T20:34:57;94682.22;;;10.95;100.00
5879;BME280;2965;42.640;23.370;2023-05-03T20:37:22;94686.66;;;10.94;100.00
5879;BME280;2965;42.640;23.370;2023-05-03T20:39:48;94683.13;;;11.02;100.00
5879;BME280;2965;42.640;23.370;2023-05-03T20:42:13;94675.16;;;11.10;100.00
5879;BME280;2965;42.640;23.370;2023-05-03T20:44:39;94675.63;;;11.14;100.00
5879;BME280;2965;42.640;23.370;2023-05-03T20:47:04;94679.03;;;11.14;100.00
5879;BME280;2965;42.640;23.370;2023-05-03T20:49:29;94678.59;;;11.25;100.00
5879;BME280;2965;42.640;23.370;2023-05-03T20:51:55;94677.84;;;11.31;100.00
5879;BME280;2965;42.640;23.370;2023-05-03T20:54:21;94681.91;;;11.34;100.00
5879;BME280;2965;42.640;23.370;2023-05-03T20:56:46;94680.22;;;11.26;100.00
5879;BME280;2965;42.640;23.370;2023-05-03T20:59:12;94685.91;;;11.30;100.00
